Time;durP1;ratioP1;P1;durP2;ratioP2;P2;SDS_P1;SDS_P2;PMS_P1;PMS_P2;Temp;Humidity;BMP_temperature;BMP_pressure;BME280_temperature;BME280_humidity;BME280_pressure;Samples;Min_cycle;Max_cycle;Signal;HPM_P1;HPM_P2
2023/08/16 00:01:22;;;;;;;;;3.00;3.00;;;;;;;;5052558;28;51370;-60
2023/08/16 00:03:47;;;;;;;;;3.00;3.00;;;;;;;;5052463;28;51293;-60
2023/08/16 00:06:13;;;;;;;;;6.00;5.00;;;;;;;;5052997;28;51245;-60
2023/08/16 00:08:39;;;;;;;;;3.00;3.00;;;;;;;;5052639;28;50943;-60
2023/08/16 00:11:04;;;;;;;;;4.67;3.67;;;;;;;;5053201;28;51020;-60
2023/08/16 00:13:30;;;;;;;;;4.00;4.00;;;;;;;;5040075;28;51939;-60
2023/08/16 00:15:55;;;;;;;;;4.00;4.00;;;;;;;;5051895;28;51074;-60
2023/08/16 00:18:20;;;;;;;;;5.00;5.00;;;;;;;;5051792;28;51004;-60
2023/08/16 00:20:45;;;;;;;;;4.00;4.00;;;;;;;;5052047;28;51409;-59
2023/08/16 00:23:10;;;;;;;;;2.33;2.33;;;;;;;;5052304;28;52010;-59
2023/08/16 00:25:36;;;;;;;;;3.67;3.00;;;;;;;;5052613;28;51167;-59
2023/08/16 00:28:01;;;;;;;;;4.33;4.33;;;;;;;;5051907;28;51660;-60
2023/08/16 00:30:26;;;;;;;;;4.00;4.00;;;;;;;;5052890;28;51062;-60
2023/08/16 00:32:51;;;;;;;;;5.33;4.33;;;;;;;;5052611;28;51641;-60
2023/08/16 00:35:17;;;;;;;;;4.67;4.00;;;;;;;;5052177;28;52193;-60
2023/08/16 00:37:42;;;;;;;;;5.00;5.00;;;;;;;;5052038;28;51298;-60
2023/08/16 00:40:08;;;;;;;;;5.00;5.00;;;;;;;;5053145;28;51315;-59
2023/08/16 00:42:33;;;;;;;;;3.00;3.00;;;;;;;;5042448;28;51768;-59
2023/08/16 00:44:58;;;;;;;;;3.33;2.33;;;;;;;;5052810;28;50998;-59
2023/08/16 00:47:24;;;;;;;;;3.00;3.00;;;;;;;;5052868;28;51012;-59
2023/08/16 00:49:49;;;;;;;;;3.33;3.33;;;;;;;;5051655;28;51100;-58
2023/08/16 00:52:14;;;;;;;;;3.00;3.00;;;;;;;;5052207;28;50955;-59
2023/08/16 00:54:40;;;;;;;;;4.00;3.00;;;;;;;;5052393;28;51034;-59
2023/08/16 00:57:05;;;;;;;;;3.00;2.67;;;;;;;;5066654;28;50888;-59
2023/08/16 00:59:30;;;;;;;;;4.00;3.00;;;;;;;;5052938;28;51118;-60
2023/08/16 01:01:55;;;;;;;;;4.33;3.00;;;;;;;;5052071;28;53351;-60
2023/08/16 01:04:21;;;;;;;;;3.00;3.00;;;;;;;;5044076;28;51196;-60
2023/08/16 01:06:46;;;;;;;;;2.00;2.00;;;;;;;;5052349;28;51221;-60
2023/08/16 01:09:11;;;;;;;;;2.00;2.00;;;;;;;;5052560;28;51329;-59
2023/08/16 01:11:54;;;;;;;;;3.00;3.00;;;;;;;;5052832;28;52598;-60
2023/08/16 01:14:19;;;;;;;;;2.00;2.00;;;;;;;;5051051;28;51228;-59
2023/08/16 01:16:45;;;;;;;;;2.67;2.67;;;;;;;;5053272;28;51180;-61
2023/08/16 01:19:13;;;;;;;;;3.00;3.00;;;;;;;;5051485;28;51298;-60
2023/08/16 01:21:41;;;;;;;;;3.00;3.00;;;;;;;;5051195;28;51149;-60
2023/08/16 01:24:13;;;;;;;;;3.00;3.00;;;;;;;;5051880;28;51024;-59
2023/08/16 01:26:40;;;;;;;;;2.00;2.00;;;;;;;;5052188;28;50937;-59
2023/08/16 01:29:06;;;;;;;;;3.67;3.00;;;;;;;;5049942;28;51137;-59
2023/08/16 01:31:32;;;;;;;;;3.00;3.00;;;;;;;;5045041;28;51142;-59
2023/08/16 01:33:59;;;;;;;;;3.67;3.67;;;;;;;;5050691;28;51201;-60
2023/08/16 01:36:24;;;;;;;;;2.00;2.00;;;;;;;;5051577;28;51131;-60
2023/08/16 01:38:49;;;;;;;;;5.00;4.00;;;;;;;;5052253;28;50953;-60
2023/08/16 01:41:26;;;;;;;;;3.00;3.00;;;;;;;;5051693;28;50952;-59
2023/08/16 01:43:52;;;;;;;;;3.67;3.67;;;;;;;;5051507;28;50973;-59
2023/08/16 01:46:19;;;;;;;;;4.00;3.00;;;;;;;;5052628;28;50954;-60
2023/08/16 01:48:45;;;;;;;;;3.00;3.00;;;;;;;;5051639;28;50990;-60
2023/08/16 01:51:10;;;;;;;;;2.00;2.00;;;;;;;;5051236;28;51737;-60
2023/08/16 01:53:36;;;;;;;;;3.00;3.00;;;;;;;;5042490;28;51174;-60
2023/08/16 01:56:01;;;;;;;;;3.00;3.00;;;;;;;;5052762;28;50925;-60
2023/08/16 01:58:26;;;;;;;;;2.33;2.33;;;;;;;;5050620;28;51315;-60
2023/08/16 02:00:52;;;;;;;;;5.00;4.00;;;;;;;;5050784;28;51038;-59
2023/08/16 02:03:17;;;;;;;;;3.00;3.00;;;;;;;;5051710;28;50980;-60
2023/08/16 02:05:42;;;;;;;;;4.00;4.00;;;;;;;;5047835;28;51247;-59
2023/08/16 02:08:10;;;;;;;;;3.33;3.00;;;;;;;;5051743;28;51369;-60
2023/08/16 02:10:35;;;;;;;;;2.00;2.00;;;;;;;;5052145;28;52558;-60
2023/08/16 02:13:00;;;;;;;;;2.33;2.00;;;;;;;;5051201;28;51176;-60
2023/08/16 02:15:26;;;;;;;;;2.00;2.00;;;;;;;;5051169;28;51264;-60
2023/08/16 02:17:51;;;;;;;;;5.00;4.33;;;;;;;;5052542;28;51178;-60
2023/08/16 02:20:16;;;;;;;;;3.00;3.00;;;;;;;;5054318;28;51898;-59
2023/08/16 02:22:41;;;;;;;;;2.00;2.00;;;;;;;;5051197;28;50919;-60
2023/08/16 02:25:07;;;;;;;;;2.33;2.33;;;;;;;;5052144;28;50890;-60
2023/08/16 02:27:33;;;;;;;;;3.67;2.67;;;;;;;;5052095;28;51143;-60
2023/08/16 02:29:58;;;;;;;;;1.33;1.33;;;;;;;;5050927;28;51825;-60
2023/08/16 02:32:23;;;;;;;;;2.33;2.00;;;;;;;;5051145;28;50930;-60
2023/08/16 02:34:48;;;;;;;;;2.00;2.00;;;;;;;;5048868;28;50878;-60
2023/08/16 02:37:13;;;;;;;;;2.00;2.00;;;;;;;;5051945;28;51187;-60
2023/08/16 02:39:39;;;;;;;;;2.00;2.00;;;;;;;;5051024;28;50905;-60
2023/08/16 02:42:04;;;;;;;;;2.00;2.00;;;;;;;;5049349;28;51033;-60
2023/08/16 02:44:29;;;;;;;;;1.00;1.00;;;;;;;;5041493;28;51173;-60
2023/08/16 02:46:54;;;;;;;;;2.33;2.33;;;;;;;;5052132;28;51048;-60
2023/08/16 02:49:19;;;;;;;;;3.00;2.00;;;;;;;;5050793;28;51714;-59
2023/08/16 02:51:45;;;;;;;;;2.00;1.67;;;;;;;;5050772;28;51048;-59
2023/08/16 02:54:10;;;;;;;;;2.00;2.00;;;;;;;;5054830;28;51131;-59
2023/08/16 02:56:35;;;;;;;;;3.00;2.33;;;;;;;;5054383;28;50901;-60
2023/08/16 02:59:00;;;;;;;;;2.67;2.67;;;;;;;;5053659;28;51772;-59
2023/08/16 03:01:26;;;;;;;;;3.00;3.00;;;;;;;;5053876;28;51134;-59
2023/08/16 03:03:51;;;;;;;;;1.33;1.33;;;;;;;;5049700;28;51173;-59
2023/08/16 03:06:17;;;;;;;;;2.00;2.00;;;;;;;;5044886;28;51333;-59
2023/08/16 03:08:42;;;;;;;;;2.00;2.00;;;;;;;;5053674;28;51836;-59
2023/08/16 03:11:07;;;;;;;;;2.67;2.00;;;;;;;;5068805;27;51213;-59
2023/08/16 03:13:33;;;;;;;;;3.00;3.00;;;;;;;;5053331;28;50950;-59
2023/08/16 03:15:58;;;;;;;;;2.33;2.00;;;;;;;;5053580;28;51047;-59
2023/08/16 03:18:23;;;;;;;;;2.33;2.33;;;;;;;;5051189;28;51123;-59
2023/08/16 03:20:48;;;;;;;;;3.00;3.00;;;;;;;;5054363;28;50920;-59
2023/08/16 03:23:13;;;;;;;;;5.00;3.00;;;;;;;;5052526;28;50937;-59
2023/08/16 03:25:39;;;;;;;;;3.67;3.00;;;;;;;;5052302;28;51235;-59
2023/08/16 03:28:04;;;;;;;;;4.00;4.00;;;;;;;;5053422;28;51994;-59
2023/08/16 03:30:29;;;;;;;;;4.33;4.00;;;;;;;;5053908;28;50922;-59
2023/08/16 03:32:54;;;;;;;;;4.00;3.00;;;;;;;;5053801;28;51151;-59
2023/08/16 03:35:20;;;;;;;;;4.00;3.00;;;;;;;;5053179;28;51242;-59
2023/08/16 03:37:45;;;;;;;;;5.67;5.00;;;;;;;;5052647;28;50922;-59
2023/08/16 03:40:10;;;;;;;;;4.00;4.00;;;;;;;;5052270;28;51168;-59
2023/08/16 03:42:35;;;;;;;;;4.67;4.33;;;;;;;;5041764;28;51086;-59
2023/08/16 03:45:00;;;;;;;;;5.33;5.00;;;;;;;;5053909;28;51467;-59
2023/08/16 03:47:26;;;;;;;;;5.00;4.00;;;;;;;;5054684;28;51708;-59
2023/08/16 03:49:51;;;;;;;;;5.67;5.67;;;;;;;;5053489;28;51147;-59
2023/08/16 03:52:16;;;;;;;;;4.00;4.00;;;;;;;;5052465;28;51267;-59
2023/08/16 03:54:41;;;;;;;;;4.33;4.33;;;;;;;;5051702;28;50920;-59
2023/08/16 03:57:07;;;;;;;;;2.00;2.00;;;;;;;;5053947;28;51953;-59
2023/08/16 03:59:32;;;;;;;;;4.00;3.00;;;;;;;;5052233;28;50974;-59
2023/08/16 04:01:57;;;;;;;;;2.00;2.00;;;;;;;;5053527;28;50940;-59
2023/08/16 04:04:22;;;;;;;;;4.33;4.00;;;;;;;;5051587;28;51499;-59
2023/08/16 04:06:47;;;;;;;;;4.00;3.00;;;;;;;;5054123;28;51928;-58
2023/08/16 04:09:13;;;;;;;;;3.33;3.33;;;;;;;;5052812;28;51031;-58
2023/08/16 04:11:39;;;;;;;;;3.33;2.67;;;;;;;;5053230;28;50896;-59
2023/08/16 04:14:04;;;;;;;;;3.00;3.00;;;;;;;;5051900;28;51135;-58
2023/08/16 04:16:29;;;;;;;;;3.00;3.00;;;;;;;;5052920;28;52518;-62
2023/08/16 04:18:54;;;;;;;;;4.00;3.00;;;;;;;;5052465;28;51146;-59
2023/08/16 04:21:20;;;;;;;;;3.00;3.00;;;;;;;;5053356;28;51012;-58
2023/08/16 04:23:45;;;;;;;;;4.00;4.00;;;;;;;;5052786;28;51284;-59
2023/08/16 04:26:10;;;;;;;;;3.67;3.00;;;;;;;;5051932;28;51899;-59
2023/08/16 04:28:35;;;;;;;;;2.00;2.00;;;;;;;;5052294;28;51143;-60
2023/08/16 04:31:01;;;;;;;;;3.00;2.33;;;;;;;;5052758;28;51119;-58
2023/08/16 04:33:26;;;;;;;;;2.00;2.00;;;;;;;;5054119;28;50925;-58
2023/08/16 04:35:51;;;;;;;;;3.00;2.00;;;;;;;;5052104;28;51074;-59
2023/08/16 04:38:16;;;;;;;;;3.00;3.00;;;;;;;;5053332;28;50964;-59
2023/08/16 04:40:41;;;;;;;;;2.00;2.00;;;;;;;;5051736;28;51252;-59
2023/08/16 04:43:07;;;;;;;;;3.33;3.33;;;;;;;;5046597;28;51190;-59
2023/08/16 04:45:32;;;;;;;;;3.67;3.00;;;;;;;;5050494;28;51138;-59
2023/08/16 04:47:57;;;;;;;;;2.33;2.33;;;;;;;;5053535;28;51175;-58
2023/08/16 04:50:22;;;;;;;;;3.00;2.00;;;;;;;;5051443;28;51343;-58
2023/08/16 04:52:47;;;;;;;;;2.67;2.67;;;;;;;;5052675;28;51080;-59
2023/08/16 04:55:13;;;;;;;;;3.00;3.00;;;;;;;;5051963;28;52044;-58
2023/08/16 04:57:38;;;;;;;;;3.00;2.00;;;;;;;;5052454;28;51050;-59
2023/08/16 05:00:10;;;;;;;;;2.33;2.00;;;;;;;;5051001;28;51019;-59
2023/08/16 05:02:35;;;;;;;;;3.00;2.33;;;;;;;;5052751;28;51328;-59
2023/08/16 05:05:00;;;;;;;;;1.00;1.00;;;;;;;;5043381;28;51806;-59
2023/08/16 05:07:25;;;;;;;;;2.33;1.67;;;;;;;;5052174;28;51016;-61
2023/08/16 05:09:50;;;;;;;;;4.00;2.00;;;;;;;;5051533;28;51058;-59
2023/08/16 05:12:16;;;;;;;;;2.00;2.00;;;;;;;;5052353;28;51091;-59
2023/08/16 05:14:41;;;;;;;;;2.67;2.67;;;;;;;;5050928;28;51805;-59
2023/08/16 05:17:06;;;;;;;;;3.33;2.67;;;;;;;;5051201;28;51132;-59
2023/08/16 05:19:31;;;;;;;;;2.00;2.00;;;;;;;;5052190;28;51232;-59
2023/08/16 05:21:56;;;;;;;;;4.00;3.00;;;;;;;;5051327;28;51115;-59
2023/08/16 05:24:22;;;;;;;;;3.00;3.00;;;;;;;;5052024;28;51097;-59
2023/08/16 05:26:47;;;;;;;;;3.00;3.00;;;;;;;;5051724;28;51175;-60
2023/08/16 05:29:12;;;;;;;;;2.67;2.00;;;;;;;;5051651;28;51288;-59
2023/08/16 05:31:41;;;;;;;;;3.00;3.00;;;;;;;;5052223;28;50892;-60
2023/08/16 05:34:06;;;;;;;;;2.00;2.00;;;;;;;;5051583;28;50986;-60
2023/08/16 05:36:31;;;;;;;;;2.67;2.67;;;;;;;;5048665;28;51019;-58
2023/08/16 05:38:57;;;;;;;;;4.00;4.00;;;;;;;;5050595;28;51274;-58
2023/08/16 05:41:22;;;;;;;;;3.00;3.00;;;;;;;;5050705;28;51026;-59
2023/08/16 05:43:47;;;;;;;;;3.00;2.00;;;;;;;;5051665;28;51916;-58
2023/08/16 05:46:12;;;;;;;;;3.33;3.33;;;;;;;;5053064;28;51025;-59
2023/08/16 05:48:37;;;;;;;;;2.67;2.67;;;;;;;;5068005;28;51179;-60
2023/08/16 05:51:02;;;;;;;;;4.00;4.00;;;;;;;;5052630;28;50901;-60
2023/08/16 05:53:28;;;;;;;;;4.33;4.00;;;;;;;;5052290;28;51213;-60
2023/08/16 05:55:53;;;;;;;;;2.33;2.33;;;;;;;;5038672;28;50978;-59
2023/08/16 05:58:18;;;;;;;;;4.00;3.00;;;;;;;;5052759;28;50975;-60
2023/08/16 06:00:45;;;;;;;;;2.00;1.67;;;;;;;;5046436;28;52019;-59
2023/08/16 06:03:10;;;;;;;;;3.00;2.00;;;;;;;;5034984;28;51286;-58
2023/08/16 06:05:35;;;;;;;;;3.00;2.00;;;;;;;;5049711;28;51410;-59
2023/08/16 06:08:01;;;;;;;;;5.00;5.00;;;;;;;;5052186;28;51076;-59
2023/08/16 06:10:26;;;;;;;;;4.00;4.00;;;;;;;;5052141;28;50995;-59
2023/08/16 06:12:51;;;;;;;;;2.67;2.67;;;;;;;;5052193;28;51148;-59
2023/08/16 06:15:16;;;;;;;;;2.67;2.67;;;;;;;;5050854;28;51044;-60
2023/08/16 06:17:42;;;;;;;;;2.00;2.00;;;;;;;;5068076;28;51099;-62
2023/08/16 06:20:07;;;;;;;;;3.00;3.00;;;;;;;;5052400;28;51289;-60
2023/08/16 06:22:33;;;;;;;;;5.00;3.00;;;;;;;;5067807;28;51686;-60
2023/08/16 06:24:59;;;;;;;;;7.33;6.67;;;;;;;;5051781;28;51075;-59
2023/08/16 06:27:24;;;;;;;;;4.33;3.33;;;;;;;;5054636;28;50973;-60
2023/08/16 06:29:49;;;;;;;;;4.00;3.00;;;;;;;;5055720;28;51286;-60
2023/08/16 06:32:15;;;;;;;;;5.00;5.00;;;;;;;;5055695;28;51798;-60
2023/08/16 06:34:40;;;;;;;;;4.00;4.00;;;;;;;;5054903;28;50913;-60
2023/08/16 06:37:05;;;;;;;;;6.67;5.00;;;;;;;;5055730;28;51127;-61
2023/08/16 06:39:30;;;;;;;;;4.67;4.67;;;;;;;;5055614;28;51342;-60
2023/08/16 06:41:55;;;;;;;;;2.67;2.33;;;;;;;;5055430;28;51865;-60
2023/08/16 06:44:20;;;;;;;;;4.00;4.00;;;;;;;;5055413;28;51031;-60
2023/08/16 06:54:35;;;;;;;;;;;;;;;;;;2268226;28;234069870;-60
2023/08/16 07:03:35;;;;;;;;;4.50;4.50;;;;;;;;2;279084362;279084362;-60
2023/08/16 07:12:45;;;;;;;;;3.50;3.50;;;;;;;;2;234069652;234069652;-59
2023/08/16 07:15:11;;;;;;;;;4.33;4.33;;;;;;;;3522819;28;43828103;-59
2023/08/16 07:17:37;;;;;;;;;4.00;4.00;;;;;;;;5054812;28;50957;-59
2023/08/16 07:20:02;;;;;;;;;6.00;5.00;;;;;;;;5054179;28;51496;-59
2023/08/16 07:22:27;;;;;;;;;4.00;4.00;;;;;;;;5051054;28;51085;-59
2023/08/16 07:24:53;;;;;;;;;4.33;4.33;;;;;;;;5054519;28;52034;-59
2023/08/16 07:27:18;;;;;;;;;6.00;5.00;;;;;;;;5054966;28;51034;-59
2023/08/16 07:29:43;;;;;;;;;7.67;7.33;;;;;;;;5070158;28;51363;-59
2023/08/16 07:32:09;;;;;;;;;7.00;7.00;;;;;;;;5054816;28;50939;-59
2023/08/16 07:34:34;;;;;;;;;5.75;5.25;;;;;;;;5054679;28;50989;-59
2023/08/16 07:36:59;;;;;;;;;4.67;4.67;;;;;;;;5053261;28;50988;-59
2023/08/16 07:39:25;;;;;;;;;5.33;5.00;;;;;;;;5053543;28;51314;-59
2023/08/16 07:41:51;;;;;;;;;5.33;5.33;;;;;;;;5054640;28;50943;-59
2023/08/16 07:44:16;;;;;;;;;4.00;4.00;;;;;;;;5054211;28;51222;-59
2023/08/16 07:46:41;;;;;;;;;4.00;4.00;;;;;;;;5055210;28;51080;-59
2023/08/16 07:49:06;;;;;;;;;6.00;6.00;;;;;;;;5054409;28;51161;-59
2023/08/16 07:51:32;;;;;;;;;5.67;5.00;;;;;;;;5054175;28;51005;-60
2023/08/16 07:53:57;;;;;;;;;5.33;5.33;;;;;;;;5054509;28;51055;-59
2023/08/16 07:56:22;;;;;;;;;6.00;6.00;;;;;;;;5054662;28;50818;-60
2023/08/16 07:58:48;;;;;;;;;5.00;5.00;;;;;;;;5054197;28;51063;-60
2023/08/16 08:01:13;;;;;;;;;5.00;5.00;;;;;;;;5069792;28;50925;-60
2023/08/16 08:03:38;;;;;;;;;3.33;3.33;;;;;;;;5054184;28;50842;-62
2023/08/16 08:06:04;;;;;;;;;6.00;5.00;;;;;;;;5054159;28;50934;-60
2023/08/16 08:08:29;;;;;;;;;5.67;4.33;;;;;;;;5053931;28;52239;-60
2023/08/16 08:10:54;;;;;;;;;4.00;3.33;;;;;;;;5069424;28;50958;-60
2023/08/16 08:13:19;;;;;;;;;5.00;4.33;;;;;;;;5042029;28;50969;-60
2023/08/16 08:15:45;;;;;;;;;3.67;3.67;;;;;;;;5054148;28;51414;-60
2023/08/16 08:18:10;;;;;;;;;2.00;2.00;;;;;;;;5053523;28;51008;-60
2023/08/16 08:20:37;;;;;;;;;5.00;4.00;;;;;;;;5053705;28;51067;-60
2023/08/16 08:23:02;;;;;;;;;3.67;3.33;;;;;;;;5053523;28;51180;-61
2023/08/16 08:25:27;;;;;;;;;3.67;3.67;;;;;;;;5052694;28;51033;-60
2023/08/16 08:27:53;;;;;;;;;3.33;3.33;;;;;;;;5053443;28;51119;-60
2023/08/16 08:30:18;;;;;;;;;4.67;4.33;;;;;;;;5053845;28;51034;-60
2023/08/16 08:32:44;;;;;;;;;3.00;3.00;;;;;;;;5069208;27;51143;-60
2023/08/16 08:35:09;;;;;;;;;4.00;4.00;;;;;;;;5049817;28;51492;-60
2023/08/16 08:37:35;;;;;;;;;3.33;3.33;;;;;;;;5053366;28;51816;-60
2023/08/16 08:40:00;;;;;;;;;4.00;3.67;;;;;;;;5053622;28;51063;-60
2023/08/16 08:42:26;;;;;;;;;7.67;7.67;;;;;;;;5053438;28;50961;-61
2023/08/16 08:44:52;;;;;;;;;1.67;1.67;;;;;;;;5044185;28;50913;-60
2023/08/16 08:47:18;;;;;;;;;4.00;4.00;;;;;;;;5052985;28;50994;-60
2023/08/16 08:49:44;;;;;;;;;4.00;4.00;;;;;;;;5052587;28;50984;-60
2023/08/16 08:52:10;;;;;;;;;4.00;4.00;;;;;;;;5053029;28;51061;-60
2023/08/16 08:54:35;;;;;;;;;5.33;4.33;;;;;;;;5053825;28;51385;-60
2023/08/16 08:57:02;;;;;;;;;3.33;3.33;;;;;;;;5052987;28;51140;-60
2023/08/16 08:59:28;;;;;;;;;3.67;3.00;;;;;;;;5052838;28;50987;-60
2023/08/16 09:01:54;;;;;;;;;3.67;3.67;;;;;;;;5053023;28;51077;-61
2023/08/16 09:04:20;;;;;;;;;5.00;5.00;;;;;;;;5053069;28;51220;-61
2023/08/16 09:06:46;;;;;;;;;7.00;6.00;;;;;;;;5052682;28;51195;-60
2023/08/16 09:09:12;;;;;;;;;6.33;4.67;;;;;;;;5052459;28;50907;-60
2023/08/16 09:11:37;;;;;;;;;4.33;3.33;;;;;;;;5052817;28;51005;-60
2023/08/16 09:14:03;;;;;;;;;5.00;4.00;;;;;;;;5053118;28;50916;-60
2023/08/16 09:16:29;;;;;;;;;3.33;3.33;;;;;;;;5052690;28;51927;-60
2023/08/16 09:18:54;;;;;;;;;3.67;3.67;;;;;;;;5052754;28;50957;-60
2023/08/16 09:21:24;;;;;;;;;3.00;3.00;;;;;;;;5052728;28;50865;-61
2023/08/16 09:23:54;;;;;;;;;4.67;4.67;;;;;;;;5052823;28;51174;-60
2023/08/16 09:26:21;;;;;;;;;3.67;3.67;;;;;;;;5050852;28;53171;-60
2023/08/16 09:28:46;;;;;;;;;4.33;4.33;;;;;;;;5052390;28;51067;-60
2023/08/16 09:31:11;;;;;;;;;3.33;3.33;;;;;;;;5052881;28;50960;-60
2023/08/16 09:33:37;;;;;;;;;5.00;5.00;;;;;;;;5052937;28;51176;-60
2023/08/16 09:36:04;;;;;;;;;4.33;4.33;;;;;;;;5051984;28;51228;-60
2023/08/16 09:38:29;;;;;;;;;3.00;3.00;;;;;;;;5052470;28;51009;-59
2023/08/16 09:40:55;;;;;;;;;3.67;3.67;;;;;;;;5052308;28;51014;-59
2023/08/16 09:43:20;;;;;;;;;5.67;5.00;;;;;;;;5052412;28;51285;-59
2023/08/16 09:45:50;;;;;;;;;3.00;3.00;;;;;;;;5052303;28;51694;-59
2023/08/16 09:48:15;;;;;;;;;4.67;4.67;;;;;;;;5052463;28;50940;-60
2023/08/16 09:50:40;;;;;;;;;4.00;3.67;;;;;;;;5052055;28;51083;-59
2023/08/16 09:53:06;;;;;;;;;3.67;3.00;;;;;;;;5052518;28;51096;-60
2023/08/16 09:55:33;;;;;;;;;2.67;2.67;;;;;;;;5052194;28;51119;-60
2023/08/16 09:57:58;;;;;;;;;4.00;4.00;;;;;;;;5052114;28;51076;-60
2023/08/16 10:00:25;;;;;;;;;3.00;2.67;;;;;;;;5051598;28;50963;-60
2023/08/16 10:02:54;;;;;;;;;2.00;2.00;;;;;;;;5052006;28;50977;-59
2023/08/16 10:05:19;;;;;;;;;3.67;3.00;;;;;;;;5051737;28;52679;-60
2023/08/16 10:07:48;;;;;;;;;3.00;3.00;;;;;;;;5052053;28;50885;-60
2023/08/16 10:10:13;;;;;;;;;5.67;5.67;;;;;;;;5052300;28;51107;-59
2023/08/16 10:12:39;;;;;;;;;5.33;5.33;;;;;;;;5045503;28;51151;-59
2023/08/16 10:15:04;;;;;;;;;4.33;3.67;;;;;;;;5051279;28;51889;-60
2023/08/16 10:17:29;;;;;;;;;2.33;2.33;;;;;;;;5051519;28;50978;-59
2023/08/16 10:19:58;;;;;;;;;3.00;3.00;;;;;;;;5051797;28;50953;-60
2023/08/16 10:22:27;;;;;;;;;3.00;3.00;;;;;;;;5052180;28;50904;-60
2023/08/16 10:24:52;;;;;;;;;3.33;3.33;;;;;;;;5051585;28;52308;-61
2023/08/16 10:27:20;;;;;;;;;3.67;3.67;;;;;;;;5051793;28;50987;-60
2023/08/16 10:29:48;;;;;;;;;6.00;5.67;;;;;;;;5051935;28;50960;-59
2023/08/16 10:32:16;;;;;;;;;3.33;3.33;;;;;;;;5067707;28;51156;-60
2023/08/16 10:34:41;;;;;;;;;3.00;3.00;;;;;;;;5051058;28;53619;-60
2023/08/16 10:37:06;;;;;;;;;3.00;2.67;;;;;;;;5051496;28;51007;-60
2023/08/16 10:39:32;;;;;;;;;2.00;2.00;;;;;;;;5052033;28;50926;-59
2023/08/16 10:42:05;;;;;;;;;3.33;3.33;;;;;;;;5051906;28;51185;-60
2023/08/16 10:44:30;;;;;;;;;2.33;2.33;;;;;;;;5051357;28;52961;-61
2023/08/16 10:46:55;;;;;;;;;1.33;1.33;;;;;;;;5051780;28;51177;-60
2023/08/16 10:49:21;;;;;;;;;1.67;1.67;;;;;;;;5051772;28;51005;-60
2023/08/16 10:51:47;;;;;;;;;1.00;1.00;;;;;;;;5050733;28;50991;-60
2023/08/16 10:54:13;;;;;;;;;1.33;1.33;;;;;;;;5051473;28;52741;-60
2023/08/16 10:56:44;;;;;;;;;2.00;2.00;;;;;;;;5051355;28;51044;-60
2023/08/16 10:59:09;;;;;;;;;1.33;1.33;;;;;;;;5051345;28;50912;-59
2023/08/16 11:01:34;;;;;;;;;2.67;2.67;;;;;;;;5051445;28;51404;-59
2023/08/16 11:04:00;;;;;;;;;3.00;3.00;;;;;;;;5050665;28;51726;-59
2023/08/16 11:06:25;;;;;;;;;2.00;2.00;;;;;;;;5051268;28;51136;-59
2023/08/16 11:08:51;;;;;;;;;4.33;3.67;;;;;;;;5044833;28;51235;-61
2023/08/16 11:11:16;;;;;;;;;2.00;1.33;;;;;;;;5066733;28;51245;-61
2023/08/16 11:13:41;;;;;;;;;1.33;1.33;;;;;;;;5053822;28;51638;-61
2023/08/16 11:16:10;;;;;;;;;1.33;1.33;;;;;;;;5054337;28;51148;-60
2023/08/16 11:18:36;;;;;;;;;1.67;1.67;;;;;;;;5054931;28;50908;-60
2023/08/16 11:21:02;;;;;;;;;1.67;1.67;;;;;;;;5054765;28;50975;-61
2023/08/16 11:23:32;;;;;;;;;0.33;0.33;;;;;;;;5054268;28;52625;-60
2023/08/16 11:25:59;;;;;;;;;2.33;1.33;;;;;;;;5053934;28;51309;-60
2023/08/16 11:28:24;;;;;;;;;2.00;1.00;;;;;;;;5054138;28;51092;-60
2023/08/16 11:30:56;;;;;;;;;2.00;2.00;;;;;;;;5054500;28;51367;-60
2023/08/16 11:33:21;;;;;;;;;1.67;1.67;;;;;;;;5054148;28;52693;-60
2023/08/16 11:35:47;;;;;;;;;2.00;2.00;;;;;;;;5053733;28;51062;-59
2023/08/16 11:38:14;;;;;;;;;2.33;2.33;;;;;;;;5054487;28;51057;-60
2023/08/16 11:40:40;;;;;;;;;3.00;3.00;;;;;;;;5054368;28;50957;-60
2023/08/16 11:43:05;;;;;;;;;0.33;0.33;;;;;;;;5053629;28;51851;-60
2023/08/16 11:45:30;;;;;;;;;1.33;1.33;;;;;;;;5053956;28;51092;-60
2023/08/16 11:47:55;;;;;;;;;2.00;2.00;;;;;;;;5054077;28;51076;-59
2023/08/16 11:50:22;;;;;;;;;2.00;2.00;;;;;;;;5054219;28;51203;-59
2023/08/16 11:53:00;;;;;;;;;3.00;3.00;;;;;;;;5054089;28;52208;-59
2023/08/16 11:55:29;;;;;;;;;3.33;3.33;;;;;;;;5069324;28;51190;-61
2023/08/16 11:57:54;;;;;;;;;2.33;2.33;;;;;;;;5065741;28;51075;-60
2023/08/16 12:00:26;;;;;;;;;2.00;2.00;;;;;;;;5055711;27;50912;-59
2023/08/16 12:02:51;;;;;;;;;4.00;3.00;;;;;;;;5052205;28;52904;-61
2023/08/16 12:05:17;;;;;;;;;2.33;1.33;;;;;;;;5053721;28;51115;-59
2023/08/16 12:07:43;;;;;;;;;1.33;1.33;;;;;;;;5053926;28;51042;-60
2023/08/16 12:10:08;;;;;;;;;4.67;3.33;;;;;;;;5052401;28;51049;-59
2023/08/16 12:12:33;;;;;;;;;2.33;2.00;;;;;;;;5053381;28;51904;-60
2023/08/16 12:14:59;;;;;;;;;3.67;3.67;;;;;;;;5039074;28;51039;-60
2023/08/16 12:17:24;;;;;;;;;2.00;2.00;;;;;;;;5053635;28;51159;-60
2023/08/16 12:19:50;;;;;;;;;2.00;2.00;;;;;;;;5053477;28;51255;-60
2023/08/16 12:22:15;;;;;;;;;2.33;2.33;;;;;;;;5053341;28;51917;-60
2023/08/16 12:24:40;;;;;;;;;3.33;2.33;;;;;;;;5052500;28;51063;-60
2023/08/16 12:27:05;;;;;;;;;4.00;4.00;;;;;;;;5053513;28;50920;-60
2023/08/16 12:29:31;;;;;;;;;1.33;1.33;;;;;;;;5053576;28;51222;-60
2023/08/16 12:31:56;;;;;;;;;1.00;1.00;;;;;;;;5053065;28;51272;-61
2023/08/16 12:34:21;;;;;;;;;1.33;1.33;;;;;;;;5053023;28;50958;-61
2023/08/16 12:36:47;;;;;;;;;2.67;1.67;;;;;;;;5069292;28;50859;-61
2023/08/16 12:39:12;;;;;;;;;1.00;1.00;;;;;;;;5069332;28;51086;-60
2023/08/16 12:41:37;;;;;;;;;2.00;2.00;;;;;;;;5053490;28;51820;-60
2023/08/16 12:44:04;;;;;;;;;2.00;2.00;;;;;;;;5052839;28;51028;-60
2023/08/16 12:46:29;;;;;;;;;0.00;0.00;;;;;;;;5052147;28;50945;-60
2023/08/16 12:48:54;;;;;;;;;2.00;2.00;;;;;;;;5053391;28;50885;-59
2023/08/16 12:51:19;;;;;;;;;3.00;3.00;;;;;;;;5053064;28;51630;-59
2023/08/16 12:53:45;;;;;;;;;3.00;3.00;;;;;;;;5053278;28;51051;-60
2023/08/16 12:56:10;;;;;;;;;2.33;2.33;;;;;;;;5053292;28;50841;-60
2023/08/16 12:58:35;;;;;;;;;2.33;2.33;;;;;;;;5053486;28;51164;-60
2023/08/16 13:01:01;;;;;;;;;2.00;2.00;;;;;;;;5048457;28;51222;-60
2023/08/16 13:03:26;;;;;;;;;3.00;3.00;;;;;;;;5052976;28;51301;-60
2023/08/16 13:05:51;;;;;;;;;4.00;4.00;;;;;;;;5052792;28;51060;-59
2023/08/16 13:08:16;;;;;;;;;2.00;2.00;;;;;;;;5053140;28;50952;-60
2023/08/16 13:10:41;;;;;;;;;2.33;2.00;;;;;;;;5052727;28;51895;-59
2023/08/16 13:13:07;;;;;;;;;2.00;2.00;;;;;;;;5052403;28;51034;-60
2023/08/16 13:15:33;;;;;;;;;3.00;2.33;;;;;;;;5052720;28;51167;-59
2023/08/16 13:17:58;;;;;;;;;3.33;3.00;;;;;;;;5052570;28;50982;-61
2023/08/16 13:20:25;;;;;;;;;3.33;3.33;;;;;;;;5052457;28;51067;-60
2023/08/16 13:22:50;;;;;;;;;5.00;4.33;;;;;;;;5052392;28;51088;-61
2023/08/16 13:25:15;;;;;;;;;2.67;2.67;;;;;;;;5052332;28;51274;-60
2023/08/16 13:27:41;;;;;;;;;2.00;2.00;;;;;;;;5052589;28;51058;-61
2023/08/16 13:30:06;;;;;;;;;2.67;2.67;;;;;;;;5052249;28;51738;-60
2023/08/16 13:32:32;;;;;;;;;1.33;1.33;;;;;;;;5066081;28;50936;-60
2023/08/16 13:34:58;;;;;;;;;5.00;4.00;;;;;;;;5051771;28;51186;-60
2023/08/16 13:37:23;;;;;;;;;2.33;2.33;;;;;;;;5051561;28;51191;-60
2023/08/16 13:39:48;;;;;;;;;4.00;3.00;;;;;;;;5052187;28;51006;-60
2023/08/16 13:42:13;;;;;;;;;3.33;3.00;;;;;;;;5051992;28;50890;-60
2023/08/16 13:44:41;;;;;;;;;4.00;4.00;;;;;;;;5052415;28;51119;-61
2023/08/16 13:47:06;;;;;;;;;3.00;3.00;;;;;;;;5052168;28;51139;-60
2023/08/16 13:49:31;;;;;;;;;2.67;2.67;;;;;;;;5051756;28;51106;-60
2023/08/16 13:51:57;;;;;;;;;3.33;3.33;;;;;;;;5052027;28;51170;-60
2023/08/16 13:54:22;;;;;;;;;4.00;3.33;;;;;;;;5052473;28;50937;-60
2023/08/16 13:56:47;;;;;;;;;3.00;3.00;;;;;;;;5052442;28;51420;-61
2023/08/16 13:59:13;;;;;;;;;3.00;3.00;;;;;;;;5051735;28;51956;-60
2023/08/16 14:01:38;;;;;;;;;3.00;3.00;;;;;;;;5067525;28;51085;-61
2023/08/16 14:04:03;;;;;;;;;3.00;3.00;;;;;;;;5052097;28;50916;-60
2023/08/16 14:06:29;;;;;;;;;4.00;3.00;;;;;;;;5067579;28;51120;-60
2023/08/16 14:08:54;;;;;;;;;2.33;2.00;;;;;;;;5051919;28;51707;-60
2023/08/16 14:11:19;;;;;;;;;3.33;3.33;;;;;;;;5051807;28;51126;-60
2023/08/16 14:13:44;;;;;;;;;3.00;3.00;;;;;;;;5052334;28;51125;-61
2023/08/16 14:16:09;;;;;;;;;3.00;3.00;;;;;;;;5048690;28;51258;-60
2023/08/16 14:18:37;;;;;;;;;2.67;2.67;;;;;;;;5067546;28;51702;-60
2023/08/16 14:21:02;;;;;;;;;2.00;2.00;;;;;;;;5051928;28;50946;-60
2023/08/16 14:23:27;;;;;;;;;2.00;2.00;;;;;;;;5067275;28;51603;-60
2023/08/16 14:25:53;;;;;;;;;3.00;3.00;;;;;;;;5051865;28;51056;-60
2023/08/16 14:28:18;;;;;;;;;3.00;3.00;;;;;;;;5051816;28;50889;-60
2023/08/16 14:30:46;;;;;;;;;2.33;2.33;;;;;;;;5051493;28;50788;-60
2023/08/16 14:33:12;;;;;;;;;4.33;4.33;;;;;;;;5051933;28;51040;-60
2023/08/16 14:35:38;;;;;;;;;2.33;2.33;;;;;;;;5051305;28;51398;-61
2023/08/16 14:38:03;;;;;;;;;3.00;3.00;;;;;;;;5051189;28;52481;-60
2023/08/16 14:40:28;;;;;;;;;3.67;3.00;;;;;;;;5051422;28;51069;-61
2023/08/16 14:42:54;;;;;;;;;4.00;4.00;;;;;;;;5067126;28;51265;-61
2023/08/16 14:45:19;;;;;;;;;3.67;3.67;;;;;;;;5051246;28;51396;-61
2023/08/16 14:47:44;;;;;;;;;2.00;2.00;;;;;;;;5052720;28;51833;-60
2023/08/16 14:50:10;;;;;;;;;2.00;2.00;;;;;;;;5054147;28;51015;-60
2023/08/16 14:52:36;;;;;;;;;2.00;2.00;;;;;;;;5054551;28;51066;-61
2023/08/16 14:55:02;;;;;;;;;3.00;3.00;;;;;;;;5055030;28;51227;-60